Airfield :
LOGIN :

Register | Disclaimer

   EN    FR    IT 

 










Legend :    VFR   Marginal VFR   IFR   Intensive IFR   Very Intensive IFR
Visi :
Ceiling :
>= 8 km
>= 3000ft
5 to 8 km
1000 to 3000 ft
1500m to 5 km
500 to 1000 ft
800 to 1500m
200 to 500 ft
< 800m
< 200 ft
Symbols :   Thunderstorms  Fog  Heavy snow  Heavy precipitations  Wind > 20 kt
SIGMETs :     Misc.  Thunderstorms  Icing  Turbulence  Mountain Waves  Volcanic Ashes






- Airport Elevation : 280 ft
- IATA code : FAE


EKVG - Vagar

CURRENT METAR :
  • 280750Z AUTO 10002KT 9999 -RA NCD 02/00 Q0978

EXPIRED METARs :
  • 280720Z AUTO 11005KT 070V130 9999 -RA SCT024/// BKN140/// 02/00 Q0978
  • 280650Z AUTO 12009KT 9999 -RA BKN013/// 02/00 Q0978
  • 280620Z AUTO 00000KT 9999 -RA BKN019/// 02/01 Q0978
  • 280550Z AUTO 11003KT 9999 FEW015/// SCT033/// 02/00 Q0978
  • 280520Z AUTO 07001KT 9999 BKN019/// 02/00 Q0978
  • 280450Z AUTO 10005KT 9999 -RA BKN017/// 01/M00 Q0978

TAF AMD TAF EKVG
Valid from the 28 at 06:00 until the 28 at 15:00 UTC


280615Z 2806/2815 11008KT 9999 BKN030
TEMPO 2806/2815 3000 SHRASN BKN008CB



MET'MAP, your aeronautical weather chart ! - Copyright ORBIFLY December 2007 - Disclaimer

ORBIFLY MET'MAP TEAM :

Programming & Development : Alexandra Zaïnal
Concept & original design : Baudouin d'Aumeries
Assistance for programming : Marc-Olivier Méhu
Technical & hardware support : Manuel Goepfert

Contact : metmap@orbifly.com




SOURCES & CREDITS :

   NOAA